Time;durP1;ratioP1;P1;durP2;ratioP2;P2;SDS_P1;SDS_P2;PMS_P1;PMS_P2;Temp;Humidity;BMP_temperature;BMP_pressure;BME280_temperature;BME280_humidity;BME280_pressure;Samples;Min_cycle;Max_cycle;Signal;HPM_P1;HPM_P2
2023/01/30 00:01:47;;;;;;;2.90;1.80;;;24.50;99.90;;;;;;4994511;28;20178;-77
2023/01/30 00:04:14;;;;;;;4.70;2.00;;;24.50;99.90;;;;;;5012470;28;20176;-77
2023/01/30 00:06:42;;;;;;;5.60;2.33;;;24.70;99.90;;;;;;5014179;28;20655;-76
2023/01/30 00:09:14;;;;;;;2.50;1.47;;;24.80;99.90;;;;;;5013930;28;20626;-78
2023/01/30 00:11:41;;;;;;;2.07;1.80;;;24.70;99.90;;;;;;5014795;28;20190;-76
2023/01/30 00:14:09;;;;;;;3.93;1.50;;;24.40;99.90;;;;;;5015375;28;20181;-76
2023/01/30 00:16:36;;;;;;;1.87;1.70;;;24.20;99.90;;;;;;5015762;28;20702;-75
2023/01/30 00:19:04;;;;;;;3.13;1.90;;;24.20;99.90;;;;;;5013182;28;20178;-74
2023/01/30 00:21:31;;;;;;;5.97;1.53;;;24.20;99.90;;;;;;5012480;28;20189;-74
2023/01/30 00:23:59;;;;;;;3.00;1.90;;;24.10;99.90;;;;;;5017033;28;20192;-74
2023/01/30 00:26:27;;;;;;;5.23;2.30;;;23.90;99.90;;;;;;5015826;28;20177;-74
2023/01/30 00:28:55;;;;;;;2.87;2.07;;;23.90;99.90;;;;;;5014639;28;20231;-74
2023/01/30 00:31:22;;;;;;;4.20;1.90;;;23.70;99.90;;;;;;5015257;28;20214;-73
2023/01/30 00:33:49;;;;;;;4.03;2.30;;;23.50;99.90;;;;;;5015233;28;20180;-73
2023/01/30 00:36:17;;;;;;;3.70;1.73;;;23.50;99.90;;;;;;5014709;28;20267;-74
2023/01/30 00:38:44;;;;;;;6.30;2.10;;;23.30;99.90;;;;;;5014821;28;20659;-73
2023/01/30 00:41:14;;;;;;;4.27;1.70;;;23.50;99.90;;;;;;5014873;28;20270;-73
2023/01/30 00:49:34;;;;;;;1.90;1.70;;;23.90;99.90;;;;;;4934912;29;20904;-75
2023/01/30 00:52:02;;;;;;;2.97;1.83;;;24.00;99.90;;;;;;4985187;28;20636;-77
2023/01/30 00:54:30;;;;;;;3.00;1.60;;;24.10;99.90;;;;;;4997016;28;20193;-76
2023/01/30 00:56:58;;;;;;;2.07;1.80;;;24.10;99.90;;;;;;5013850;28;20178;-76
2023/01/30 00:59:26;;;;;;;3.90;1.90;;;24.20;99.90;;;;;;5014041;28;20658;-75
2023/01/30 01:01:53;;;;;;;1.60;1.50;;;24.20;99.90;;;;;;4996822;28;20531;-76
2023/01/30 01:04:21;;;;;;;3.47;1.80;;;24.30;99.90;;;;;;4996990;28;20280;-77
2023/01/30 01:06:48;;;;;;;4.13;2.20;;;24.40;99.90;;;;;;4996322;28;20692;-77
2023/01/30 01:09:16;;;;;;;2.87;1.90;;;24.70;99.90;;;;;;5014816;28;20236;-78
2023/01/30 01:11:43;;;;;;;1.60;1.23;;;24.90;99.90;;;;;;5014284;28;20248;-76
2023/01/30 01:14:11;;;;;;;1.93;1.43;;;25.30;99.90;;;;;;5014145;28;20675;-76
2023/01/30 01:16:38;;;;;;;4.07;1.80;;;26.10;99.90;;;;;;5014165;28;20181;-75
2023/01/30 01:19:05;;;;;;;2.83;1.67;;;26.80;99.90;;;;;;5014350;28;20254;-77
2023/01/30 01:21:33;;;;;;;4.73;1.80;;;27.50;99.90;;;;;;5013637;28;20182;-75
2023/01/30 01:24:00;;;;;;;3.93;1.43;;;28.00;99.90;;;;;;5014182;28;20264;-77
2023/01/30 01:26:28;;;;;;;1.70;1.30;;;28.50;99.90;;;;;;5014028;28;20632;-77
2023/01/30 01:28:56;;;;;;;4.23;1.10;;;28.30;99.90;;;;;;5013029;28;20258;-74
2023/01/30 01:31:25;;;;;;;3.30;1.60;;;28.10;99.90;;;;;;5013854;28;20616;-75
2023/01/30 01:33:52;;;;;;;3.40;1.30;;;27.80;99.90;;;;;;5012828;28;20236;-77
2023/01/30 01:36:19;;;;;;;6.50;2.07;;;28.00;99.90;;;;;;4995910;28;20186;-76
2023/01/30 01:38:47;;;;;;;2.67;1.40;;;27.90;99.90;;;;;;5013988;28;20200;-77
2023/01/30 01:41:17;;;;;;;3.13;1.33;;;28.40;99.90;;;;;;5013468;28;20204;-75
2023/01/30 01:44:05;;;;;;;2.10;1.40;;;28.60;99.90;;;;;;5011609;28;20652;-81
2023/01/30 01:46:46;;;;;;;4.30;1.47;;;28.50;99.90;;;;;;5011180;28;20620;-78
2023/01/30 01:49:34;;;;;;;2.33;1.20;;;29.20;99.90;;;;;;5005080;28;20204;-76
2023/01/30 01:52:07;;;;;;;3.60;1.77;;;29.80;99.90;;;;;;5011621;28;20182;-77
2023/01/30 01:54:54;;;;;;;2.97;1.60;;;29.80;99.90;;;;;;4991732;28;20185;-76
2023/01/30 01:57:37;;;;;;;5.10;1.20;;;29.80;99.90;;;;;;5010792;28;20201;-74
2023/01/30 02:00:10;;;;;;;2.97;1.47;;;30.30;99.90;;;;;;5013669;28;20687;-76
2023/01/30 02:02:58;;;;;;;1.73;1.17;;;30.40;99.90;;;;;;5013357;28;20178;-76
2023/01/30 02:05:28;;;;;;;1.63;1.17;;;30.20;99.90;;;;;;5012188;28;20725;-76
2023/01/30 02:08:21;;;;;;;4.20;1.30;;;29.60;99.90;;;;;;4981867;28;20228;-76
2023/01/30 02:11:13;;;;;;;2.97;1.40;;;29.60;99.90;;;;;;4993897;28;20186;-76
2023/01/30 02:13:40;;;;;;;2.33;1.50;;;29.70;99.90;;;;;;5011615;28;20186;-76
2023/01/30 02:16:09;;;;;;;2.50;1.40;;;29.70;99.90;;;;;;5012330;28;20185;-76
2023/01/30 02:18:39;;;;;;;5.33;1.20;;;29.70;99.90;;;;;;5013088;28;20189;-73
2023/01/30 02:21:42;;;;;;;3.23;1.40;;;29.40;99.90;;;;;;5012338;28;20174;-74
2023/01/30 02:24:30;;;;;;;1.97;1.20;;;29.20;99.90;;;;;;5013160;28;20720;-76
2023/01/30 02:27:20;;;;;;;3.37;1.30;;;29.10;99.90;;;;;;4994097;28;20281;-74
2023/01/30 02:30:09;;;;;;;4.93;1.43;;;28.90;99.90;;;;;;5012982;28;20701;-75
2023/01/30 02:32:54;;;;;;;2.43;1.00;;;28.70;99.90;;;;;;4995245;28;20209;-77
2023/01/30 02:35:32;;;;;;;8.50;2.03;;;29.00;99.90;;;;;;4994382;28;20194;-75
2023/01/30 02:38:31;;;;;;;2.90;1.40;;;28.80;99.90;;;;;;5012854;28;20677;-75
2023/01/30 02:41:21;;;;;;;2.03;1.50;;;28.80;99.90;;;;;;4926073;28;20197;-75
2023/01/30 02:43:59;;;;;;;3.67;1.53;;;28.70;99.90;;;;;;5012256;28;20268;-77
2023/01/30 02:46:50;;;;;;;2.37;1.23;;;28.90;99.90;;;;;;5011807;28;20260;-75
2023/01/30 02:49:41;;;;;;;2.40;1.50;;;28.80;99.90;;;;;;5012283;28;20182;-76
2023/01/30 02:52:11;;;;;;;1.80;1.30;;;28.80;99.90;;;;;;5012567;28;20184;-74
2023/01/30 02:54:38;;;;;;;3.10;1.67;;;29.40;99.90;;;;;;5012576;28;20232;-74
2023/01/30 02:57:26;;;;;;;3.67;1.53;;;29.80;99.90;;;;;;5011855;28;20178;-74
2023/01/30 03:00:01;;;;;;;2.00;1.60;;;30.00;99.90;;;;;;5012671;28;20185;-78
2023/01/30 03:02:43;;;;;;;2.77;1.70;;;30.10;99.90;;;;;;5012240;28;20185;-76
2023/01/30 03:05:31;;;;;;;2.80;1.40;;;30.10;99.90;;;;;;5011747;28;20280;-74
2023/01/30 03:08:01;;;;;;;2.77;1.50;;;30.20;99.90;;;;;;4995225;28;20268;-76
2023/01/30 03:10:50;;;;;;;2.03;1.30;;;30.20;99.90;;;;;;5012214;28;20196;-76
2023/01/30 03:13:42;;;;;;;1.73;1.33;;;30.30;99.90;;;;;;5011630;28;20178;-76
2023/01/30 03:16:18;;;;;;;2.20;1.40;;;30.40;99.90;;;;;;5012199;28;20186;-76
2023/01/30 03:18:46;;;;;;;3.73;1.57;;;30.00;99.90;;;;;;5012020;28;20661;-76
2023/01/30 03:21:14;;;;;;;3.97;1.60;;;29.60;99.90;;;;;;5011610;28;20589;-74
2023/01/30 03:23:44;;;;;;;3.47;1.57;;;29.50;99.90;;;;;;5011320;28;20190;-77
2023/01/30 03:26:24;;;;;;;2.13;1.43;;;29.20;99.90;;;;;;5011719;28;20686;-76
2023/01/30 03:28:52;;;;;;;3.20;1.90;;;29.50;99.90;;;;;;5011090;28;20233;-77
2023/01/30 03:31:20;;;;;;;5.53;1.80;;;29.70;99.90;;;;;;5011999;28;20178;-77
2023/01/30 03:33:47;;;;;;;2.23;1.43;;;29.60;99.90;;;;;;5011162;28;20208;-78
2023/01/30 03:36:15;;;;;;;6.20;1.57;;;29.80;99.90;;;;;;5011686;28;20281;-77
2023/01/30 03:38:42;;;;;;;3.60;1.53;;;29.90;99.90;;;;;;4993281;28;20280;-78
2023/01/30 03:41:10;;;;;;;4.57;1.60;;;30.20;99.90;;;;;;5010899;28;20273;-76
2023/01/30 03:43:38;;;;;;;3.50;1.53;;;30.10;99.90;;;;;;5009382;28;20178;-77
2023/01/30 03:46:06;;;;;;;5.73;2.00;;;29.80;99.90;;;;;;5011104;28;20268;-77
2023/01/30 03:48:33;;;;;;;7.33;2.00;;;29.70;99.90;;;;;;5011064;28;20268;-80
2023/01/30 03:51:00;;;;;;;2.17;1.33;;;29.70;99.90;;;;;;5012064;28;20190;-78
2023/01/30 03:53:28;;;;;;;3.47;1.67;;;29.80;99.90;;;;;;5012083;28;20185;-79
2023/01/30 03:55:55;;;;;;;4.53;1.90;;;29.80;99.90;;;;;;5011805;28;20186;-74
2023/01/30 03:58:22;;;;;;;2.13;1.40;;;29.90;99.90;;;;;;5016222;28;20250;-77
2023/01/30 04:00:50;;;;;;;4.40;1.70;;;29.90;99.90;;;;;;5016056;28;20655;-75
2023/01/30 04:03:17;;;;;;;4.43;1.70;;;29.70;99.90;;;;;;4999196;28;20517;-76
2023/01/30 04:05:45;;;;;;;1.30;1.20;;;29.60;99.90;;;;;;5016052;28;20260;-80
2023/01/30 04:08:12;;;;;;;4.07;1.60;;;29.50;99.90;;;;;;5016102;28;20193;-78
2023/01/30 04:10:39;;;;;;;2.37;1.47;;;29.20;99.90;;;;;;5015879;28;20178;-78
2023/01/30 04:13:07;;;;;;;3.80;1.80;;;29.20;99.90;;;;;;5015759;28;20170;-79
2023/01/30 04:15:34;;;;;;;3.50;1.80;;;29.00;99.90;;;;;;5015893;28;20174;-78
2023/01/30 04:18:01;;;;;;;3.33;1.60;;;29.20;99.90;;;;;;5015760;28;20216;-77
2023/01/30 04:20:29;;;;;;;11.10;2.00;;;29.10;99.90;;;;;;5015442;28;20218;-79
2023/01/30 04:22:56;;;;;;;2.60;1.73;;;28.90;99.90;;;;;;5015759;28;20178;-78
2023/01/30 04:25:24;;;;;;;10.17;1.97;;;28.70;99.90;;;;;;5015627;28;20710;-76
2023/01/30 04:27:51;;;;;;;2.20;1.60;;;28.40;99.90;;;;;;4997622;28;20345;-78
2023/01/30 04:30:18;;;;;;;3.93;1.63;;;28.30;99.90;;;;;;5015534;28;20182;-77
2023/01/30 04:32:46;;;;;;;4.07;1.83;;;28.50;99.90;;;;;;5015520;28;20180;-80
2023/01/30 04:35:13;;;;;;;3.20;2.20;;;28.40;99.90;;;;;;5015516;28;20197;-81
2023/01/30 04:37:41;;;;;;;3.57;1.70;;;28.30;99.90;;;;;;5016002;28;20255;-78
2023/01/30 04:40:09;;;;;;;2.10;1.83;;;28.00;99.90;;;;;;5015648;28;20848;-80
2023/01/30 04:42:36;;;;;;;6.60;2.13;;;27.90;99.90;;;;;;5016149;28;20177;-79
2023/01/30 04:45:04;;;;;;;2.17;1.60;;;28.00;99.90;;;;;;4997460;28;20320;-78
2023/01/30 04:47:31;;;;;;;5.37;1.93;;;28.00;99.90;;;;;;5015178;28;20178;-78
2023/01/30 04:49:59;;;;;;;2.53;1.80;;;28.00;99.90;;;;;;5014756;28;20174;-78
2023/01/30 04:52:26;;;;;;;5.17;1.83;;;27.90;99.90;;;;;;5016215;28;20534;-77
2023/01/30 04:54:53;;;;;;;1.73;1.60;;;27.70;99.90;;;;;;5016292;28;20557;-79
2023/01/30 04:57:21;;;;;;;2.50;1.80;;;27.70;99.90;;;;;;5018838;28;20174;-86
2023/01/30 04:59:48;;;;;;;11.60;2.53;;;27.60;99.90;;;;;;5022193;28;20180;-81
2023/01/30 05:02:15;;;;;;;4.10;1.90;;;27.50;99.90;;;;;;5018144;28;20241;-83
2023/01/30 05:04:43;;;;;;;3.63;2.10;;;27.30;99.90;;;;;;5017817;28;20292;-80
2023/01/30 05:07:10;;;;;;;2.40;1.83;;;27.20;99.90;;;;;;5017000;28;20624;-80
2023/01/30 05:09:38;;;;;;;4.13;2.00;;;27.30;99.90;;;;;;5016711;28;20533;-83
2023/01/30 05:12:05;;;;;;;2.20;2.00;;;27.30;99.90;;;;;;5015960;28;20650;-77
2023/01/30 05:14:34;;;;;;;2.70;2.07;;;27.30;99.90;;;;;;5015019;28;20667;-79
2023/01/30 05:17:01;;;;;;;4.77;2.40;;;27.20;99.90;;;;;;5014708;28;20543;-79
2023/01/30 05:19:29;;;;;;;4.47;2.00;;;27.10;99.90;;;;;;5014340;28;20170;-78
2023/01/30 05:21:56;;;;;;;5.23;1.60;;;27.00;99.90;;;;;;4996994;28;20189;-78
2023/01/30 05:24:23;;;;;;;2.27;1.70;;;26.80;99.90;;;;;;5014507;28;20224;-78
2023/01/30 05:26:51;;;;;;;2.73;1.60;;;26.60;99.90;;;;;;5014474;28;20174;-79
2023/01/30 05:29:18;;;;;;;1.60;1.50;;;26.50;99.90;;;;;;5015261;28;20221;-80
2023/01/30 05:31:45;;;;;;;4.90;2.20;;;26.40;99.90;;;;;;5014643;28;20175;-79
2023/01/30 05:34:13;;;;;;;9.90;2.47;;;26.50;99.90;;;;;;4993335;28;20193;-75
2023/01/30 05:36:40;;;;;;;6.50;3.00;;;26.50;99.90;;;;;;4992987;28;20208;-80
2023/01/30 05:39:08;;;;;;;4.27;2.33;;;26.30;99.90;;;;;;5004855;28;20570;-79
2023/01/30 05:41:35;;;;;;;7.57;3.23;;;26.10;99.90;;;;;;5012442;28;20189;-79
2023/01/30 05:44:02;;;;;;;10.73;3.87;;;25.80;99.90;;;;;;5013527;28;20178;-78
2023/01/30 05:46:30;;;;;;;8.90;4.47;;;25.60;99.90;;;;;;5013671;28;20275;-76
2023/01/30 05:48:57;;;;;;;10.23;4.00;;;25.20;99.90;;;;;;4995552;28;20611;-79
2023/01/30 05:51:26;;;;;;;9.40;4.33;;;25.00;99.90;;;;;;5013935;28;20268;-79
2023/01/30 05:53:54;;;;;;;9.47;4.00;;;24.80;99.90;;;;;;4996446;28;20646;-79
2023/01/30 05:56:22;;;;;;;7.77;4.00;;;24.60;99.90;;;;;;5013380;28;20181;-75
2023/01/30 05:58:56;;;;;;;8.80;3.77;;;24.50;99.90;;;;;;5013482;28;20332;-78
2023/01/30 06:01:25;;;;;;;8.43;3.70;;;24.30;99.90;;;;;;5014008;28;20188;-80
2023/01/30 06:03:53;;;;;;;6.90;3.77;;;24.30;99.90;;;;;;5013660;28;20226;-77
2023/01/30 06:06:22;;;;;;;6.90;3.00;;;24.20;99.90;;;;;;5013665;28;20240;-77
2023/01/30 06:08:53;;;;;;;4.00;2.10;;;24.10;99.90;;;;;;4995572;28;20279;-77
2023/01/30 06:11:21;;;;;;;2.83;1.20;;;23.90;99.90;;;;;;5012986;28;20181;-78
2023/01/30 06:13:48;;;;;;;2.03;1.33;;;23.70;99.90;;;;;;5013592;28;20177;-78
2023/01/30 06:16:17;;;;;;;3.73;2.20;;;23.50;99.90;;;;;;5013631;28;20647;-77
2023/01/30 06:18:48;;;;;;;3.20;1.97;;;23.40;99.90;;;;;;4994224;28;20534;-78
2023/01/30 06:21:16;;;;;;;2.33;2.10;;;23.40;99.90;;;;;;5010415;28;20189;-79
2023/01/30 06:23:45;;;;;;;5.20;2.30;;;23.20;99.90;;;;;;5007968;28;20639;-77
2023/01/30 06:26:12;;;;;;;4.33;2.57;;;23.20;99.90;;;;;;4993627;28;20218;-77
2023/01/30 06:28:40;;;;;;;7.43;2.70;;;23.10;99.90;;;;;;4994703;28;20213;-77
2023/01/30 06:31:12;;;;;;;6.30;2.17;;;23.10;99.90;;;;;;5012692;28;20201;-78
2023/01/30 06:33:39;;;;;;;3.93;2.50;;;23.00;99.90;;;;;;5003867;28;20205;-75
2023/01/30 06:36:07;;;;;;;5.63;2.57;;;22.90;99.90;;;;;;4990632;28;20208;-79
2023/01/30 06:38:35;;;;;;;3.57;2.80;;;22.80;99.90;;;;;;5005783;28;20257;-75
2023/01/30 06:41:02;;;;;;;3.67;2.37;;;22.90;99.90;;;;;;5007234;28;20193;-76
2023/01/30 06:43:30;;;;;;;2.87;2.40;;;22.90;99.90;;;;;;4993914;28;20194;-77
2023/01/30 06:45:59;;;;;;;3.93;2.67;;;22.90;99.90;;;;;;5005464;28;20268;-76
2023/01/30 06:48:26;;;;;;;5.07;2.17;;;23.00;99.90;;;;;;4998110;28;20643;-79
2023/01/30 06:50:53;;;;;;;3.60;1.93;;;22.90;99.90;;;;;;5013237;28;20201;-77
2023/01/30 06:53:24;;;;;;;4.20;2.10;;;22.90;99.90;;;;;;5027451;28;20650;-75
2023/01/30 06:55:51;;;;;;;3.17;2.20;;;22.80;99.90;;;;;;5032759;28;20191;-77
2023/01/30 06:58:18;;;;;;;5.30;2.27;;;22.90;99.90;;;;;;5033025;28;20205;-77
2023/01/30 07:00:46;;;;;;;6.73;1.67;;;22.80;99.90;;;;;;5020710;28;20174;-74
2023/01/30 07:03:15;;;;;;;3.30;2.00;;;22.70;99.90;;;;;;5012262;28;20209;-75
2023/01/30 07:05:44;;;;;;;6.57;2.83;;;22.70;99.90;;;;;;5012515;28;20218;-75
2023/01/30 07:08:12;;;;;;;5.00;2.43;;;22.70;99.90;;;;;;5023074;28;20184;-77
2023/01/30 07:10:40;;;;;;;8.03;2.43;;;22.70;99.90;;;;;;5014101;28;20190;-75
2023/01/30 07:13:07;;;;;;;2.80;2.10;;;22.70;99.90;;;;;;5011280;28;20170;-74
2023/01/30 07:15:35;;;;;;;3.80;2.03;;;22.60;99.90;;;;;;5011610;28;20273;-75
2023/01/30 07:18:02;;;;;;;3.17;1.70;;;22.60;99.90;;;;;;5011255;28;20229;-76
2023/01/30 07:20:30;;;;;;;2.27;2.07;;;22.50;99.90;;;;;;5011428;28;20697;-76
2023/01/30 07:22:57;;;;;;;2.87;1.40;;;22.60;99.90;;;;;;5010762;28;20177;-76
2023/01/30 07:25:26;;;;;;;1.70;1.43;;;22.50;99.90;;;;;;4993314;28;20679;-76
2023/01/30 07:28:01;;;;;;;3.77;1.50;;;22.40;99.90;;;;;;5011164;28;20227;-75
2023/01/30 07:30:31;;;;;;;2.33;1.40;;;22.50;99.90;;;;;;5011390;28;20183;-76
2023/01/30 07:33:00;;;;;;;4.17;2.33;;;22.50;99.90;;;;;;4994529;28;20959;-77
2023/01/30 07:35:29;;;;;;;2.80;2.17;;;22.50;99.90;;;;;;5011304;28;20186;-78
2023/01/30 07:37:57;;;;;;;4.50;2.97;;;22.60;99.90;;;;;;5010968;28;20212;-77
2023/01/30 07:40:25;;;;;;;3.47;2.10;;;22.60;99.90;;;;;;5011368;28;20186;-75
2023/01/30 07:42:59;;;;;;;11.60;7.07;;;22.50;99.90;;;;;;5010850;28;20180;-76
2023/01/30 07:45:40;;;;;;;9.00;5.43;;;22.40;99.90;;;;;;4980039;28;20214;-73
2023/01/30 07:48:13;;;;;;;4.07;2.47;;;22.40;99.90;;;;;;4991916;28;20178;-74
2023/01/30 07:50:42;;;;;;;2.13;1.40;;;22.40;99.90;;;;;;4994783;28;20183;-75
2023/01/30 07:53:12;;;;;;;3.30;2.20;;;22.30;99.90;;;;;;5010547;28;20186;-75
2023/01/30 07:55:40;;;;;;;2.00;1.17;;;22.40;99.90;;;;;;4991986;28;20272;-75
2023/01/30 07:58:09;;;;;;;2.77;1.10;;;22.40;99.90;;;;;;5008113;28;20188;-76
2023/01/30 08:00:37;;;;;;;1.80;1.10;;;22.50;99.90;;;;;;5002196;28;20190;-76
2023/01/30 08:03:04;;;;;;;2.10;1.03;;;22.40;99.90;;;;;;4993786;28;20664;-77
2023/01/30 08:05:32;;;;;;;1.73;1.03;;;22.40;99.90;;;;;;5010951;28;20514;-76
2023/01/30 08:07:59;;;;;;;1.37;1.10;;;22.40;99.90;;;;;;5010647;28;20264;-77
2023/01/30 08:10:27;;;;;;;3.13;1.10;;;22.40;99.90;;;;;;5008102;28;20192;-73
2023/01/30 08:12:54;;;;;;;1.27;0.90;;;22.40;99.90;;;;;;5003889;28;20174;-75
2023/01/30 08:15:22;;;;;;;2.37;1.10;;;22.40;99.90;;;;;;4991947;28;20183;-76
2023/01/30 08:17:56;;;;;;;4.13;1.00;;;22.30;99.90;;;;;;5003744;28;20177;-76
2023/01/30 08:20:25;;;;;;;5.03;1.67;;;22.30;99.90;;;;;;5010949;28;20194;-76
2023/01/30 08:22:53;;;;;;;3.37;1.10;;;22.30;99.90;;;;;;5010309;28;20182;-76
2023/01/30 08:25:21;;;;;;;4.83;1.23;;;22.30;99.90;;;;;;5010548;28;20209;-77
2023/01/30 08:27:49;;;;;;;1.93;1.00;;;22.30;99.90;;;;;;5009893;28;20588;-78
2023/01/30 08:30:17;;;;;;;3.73;1.00;;;22.30;99.90;;;;;;5010442;28;20274;-78
2023/01/30 08:32:44;;;;;;;2.33;1.00;;;22.30;99.90;;;;;;5011022;28;20699;-77
2023/01/30 08:35:12;;;;;;;2.83;1.20;;;22.30;99.90;;;;;;5011007;28;20185;-76
2023/01/30 08:37:41;;;;;;;1.80;0.90;;;22.30;99.90;;;;;;5010390;28;20213;-77
2023/01/30 08:40:09;;;;;;;1.80;1.03;;;22.40;99.90;;;;;;5010330;28;20190;-77
2023/01/30 08:42:36;;;;;;;2.30;1.20;;;22.30;99.90;;;;;;5011988;28;20242;-75
2023/01/30 08:45:04;;;;;;;1.63;1.00;;;22.30;99.90;;;;;;5014005;28;20590;-76
2023/01/30 08:47:34;;;;;;;2.27;1.03;;;22.30;99.90;;;;;;5014428;28;20225;-77
2023/01/30 08:50:02;;;;;;;3.30;1.10;;;22.40;99.90;;;;;;5014251;28;20183;-76
2023/01/30 08:52:31;;;;;;;4.37;1.10;;;22.30;99.90;;;;;;5014121;28;20584;-77
2023/01/30 08:54:58;;;;;;;2.20;1.20;;;22.40;99.90;;;;;;5014519;28;20204;-77
2023/01/30 08:57:26;;;;;;;2.80;1.20;;;22.30;99.90;;;;;;5014265;28;20177;-76
2023/01/30 08:59:53;;;;;;;4.83;1.03;;;22.40;99.90;;;;;;5014240;28;20178;-76
2023/01/30 09:02:21;;;;;;;1.73;1.03;;;22.40;99.90;;;;;;5014355;28;20681;-77
2023/01/30 09:04:48;;;;;;;1.63;0.90;;;22.30;99.90;;;;;;5014454;28;20224;-76
2023/01/30 09:07:16;;;;;;;3.07;1.20;;;22.40;99.90;;;;;;5014020;28;20210;-77
2023/01/30 09:09:43;;;;;;;2.50;0.73;;;22.30;99.90;;;;;;5014431;28;20174;-76
2023/01/30 09:12:10;;;;;;;2.30;0.70;;;22.30;99.90;;;;;;5014145;28;20254;-77
2023/01/30 09:14:38;;;;;;;2.07;0.60;;;22.30;99.90;;;;;;5013550;28;20265;-77
2023/01/30 09:17:05;;;;;;;1.67;0.77;;;22.20;99.90;;;;;;4996594;28;20314;-77
2023/01/30 09:19:35;;;;;;;2.73;0.80;;;22.20;99.90;;;;;;5013910;28;20467;-77
2023/01/30 09:22:03;;;;;;;1.60;0.90;;;22.20;99.90;;;;;;5013764;28;20180;-75
2023/01/30 09:24:31;;;;;;;1.37;0.70;;;22.30;99.90;;;;;;5014411;28;20265;-78
2023/01/30 09:26:58;;;;;;;3.77;0.80;;;22.30;99.90;;;;;;5013840;28;20197;-76
2023/01/30 09:29:27;;;;;;;1.07;0.63;;;22.30;99.90;;;;;;5013517;28;20224;-78
2023/01/30 09:31:55;;;;;;;1.13;0.70;;;22.30;99.90;;;;;;5014059;28;20208;-76
2023/01/30 09:34:27;;;;;;;1.43;0.80;;;22.20;99.90;;;;;;5014018;28;20174;-78
2023/01/30 09:36:56;;;;;;;2.33;1.00;;;22.30;99.90;;;;;;5013244;28;20180;-77
2023/01/30 09:39:23;;;;;;;3.17;1.00;;;22.40;99.90;;;;;;5013872;28;20185;-78
2023/01/30 09:42:24;;;;;;;3.20;0.93;;;22.40;99.90;;;;;;5013726;28;20184;-77
2023/01/30 09:45:28;;;;;;;2.13;1.00;;;22.50;99.90;;;;;;5013313;28;20200;-77
2023/01/30 09:48:03;;;;;;;1.10;0.77;;;22.40;99.90;;;;;;5013677;28;20800;-76
2023/01/30 09:51:07;;;;;;;1.00;0.80;;;22.30;99.90;;;;;;5013780;28;20172;-76
2023/01/30 09:53:52;;;;;;;2.00;0.83;;;22.20;99.90;;;;;;5012738;28;20201;-76
2023/01/30 09:56:20;;;;;;;2.03;0.60;;;22.20;99.90;;;;;;5013812;28;20298;-77
2023/01/30 09:59:04;;;;;;;1.63;0.60;;;22.20;99.90;;;;;;5013122;28;20188;-77
2023/01/30 10:01:44;;;;;;;5.47;0.83;;;22.10;99.90;;;;;;4995872;28;20203;-76
2023/01/30 10:04:44;;;;;;;1.30;0.50;;;22.10;99.90;;;;;;5013211;28;20267;-76
2023/01/30 10:07:41;;;;;;;0.90;0.60;;;22.10;99.90;;;;;;4995389;28;20190;-77
2023/01/30 10:10:15;;;;;;;0.50;0.40;;;22.10;99.90;;;;;;5003611;28;20188;-75
2023/01/30 10:13:10;;;;;;;2.10;0.60;;;22.00;99.90;;;;;;5013037;28;20643;-76
2023/01/30 10:16:34;;;;;;;1.00;0.80;;;22.00;99.90;;;;;;5012362;28;20202;-76
2023/01/30 10:19:25;;;;;;;2.70;0.70;;;21.90;99.90;;;;;;4952555;29;20670;-76
2023/01/30 10:22:10;;;;;;;0.53;0.53;;;21.90;99.90;;;;;;4994663;28;20221;-75
2023/01/30 10:25:19;;;;;;;2.03;0.70;;;21.80;99.90;;;;;;5012945;28;20777;-77
2023/01/30 10:28:02;;;;;;;3.23;0.70;;;21.80;99.90;;;;;;4999964;28;20198;-77
2023/01/30 10:30:30;;;;;;;1.87;0.90;;;21.80;99.90;;;;;;5012868;28;20276;-76
2023/01/30 10:33:17;;;;;;;2.43;1.07;;;21.70;99.90;;;;;;5012543;28;20178;-77
2023/01/30 10:35:48;;;;;;;2.13;0.77;;;21.70;99.90;;;;;;5012625;28;20177;-78
2023/01/30 10:38:36;;;;;;;2.00;0.90;;;21.80;99.90;;;;;;5012826;28;20170;-76
2023/01/30 10:41:37;;;;;;;3.90;1.20;;;21.70;99.90;;;;;;5011943;28;20182;-77
2023/01/30 10:44:08;;;;;;;3.00;1.30;;;21.70;99.90;;;;;;5006560;28;20276;-78
2023/01/30 10:46:52;;;;;;;2.67;0.90;;;21.60;99.90;;;;;;5012285;28;20607;-77
2023/01/30 10:49:43;;;;;;;1.83;1.00;;;21.70;99.90;;;;;;5012719;28;20188;-74
2023/01/30 10:52:51;;;;;;;3.23;1.13;;;21.60;99.90;;;;;;5011774;28;20185;-76
2023/01/30 10:55:43;;;;;;;1.87;1.03;;;21.60;99.90;;;;;;5012668;28;20179;-77
2023/01/30 10:58:22;;;;;;;4.50;1.10;;;21.50;99.90;;;;;;5011701;28;20170;-77
2023/01/30 11:01:06;;;;;;;2.20;1.10;;;21.60;99.90;;;;;;4994432;28;20189;-75
2023/01/30 11:03:53;;;;;;;3.33;1.10;;;21.60;99.90;;;;;;5011931;28;20178;-75
2023/01/30 11:06:24;;;;;;;3.20;1.20;;;21.60;99.90;;;;;;5011632;28;20210;-77
2023/01/30 11:08:54;;;;;;;1.33;0.73;;;21.60;99.90;;;;;;5012121;28;20185;-76
2023/01/30 11:11:41;;;;;;;2.07;1.13;;;21.60;99.90;;;;;;5012347;28;20196;-78
2023/01/30 11:14:10;;;;;;;5.70;1.10;;;21.60;99.90;;;;;;4991908;28;20210;-77
2023/01/30 11:16:56;;;;;;;2.87;1.13;;;21.50;99.90;;;;;;4992619;28;20175;-75
2023/01/30 11:19:32;;;;;;;2.73;0.87;;;21.50;99.90;;;;;;4992410;28;20177;-75
2023/01/30 11:22:04;;;;;;;2.03;0.90;;;21.50;99.90;;;;;;4993930;28;20591;-76
2023/01/30 11:25:13;;;;;;;3.40;1.60;;;21.50;99.90;;;;;;5011900;28;20184;-73
2023/01/30 11:27:43;;;;;;;4.10;1.03;;;21.50;99.90;;;;;;5011558;28;20262;-76
2023/01/30 11:30:13;;;;;;;7.10;1.47;;;21.50;99.90;;;;;;5011758;28;20185;-75
2023/01/30 11:32:43;;;;;;;1.87;1.10;;;21.50;99.90;;;;;;5011439;28;20181;-75
2023/01/30 11:35:10;;;;;;;7.03;1.20;;;21.50;99.90;;;;;;4993578;28;20228;-76
2023/01/30 11:37:40;;;;;;;2.90;1.20;;;21.50;99.90;;;;;;5011575;28;20638;-76
2023/01/30 11:40:30;;;;;;;3.60;1.00;;;21.40;99.90;;;;;;5011679;28;20213;-77
2023/01/30 11:43:09;;;;;;;3.60;1.10;;;21.40;99.90;;;;;;5010498;28;20523;-73
2023/01/30 11:45:44;;;;;;;3.37;1.17;;;21.40;99.90;;;;;;4993934;28;20559;-76
2023/01/30 11:48:30;;;;;;;1.97;1.20;;;21.50;99.90;;;;;;4994013;28;20227;-75
2023/01/30 11:51:04;;;;;;;5.60;1.50;;;21.50;99.90;;;;;;4975958;28;20233;-75
2023/01/30 11:53:34;;;;;;;2.73;0.90;;;21.50;99.90;;;;;;5009904;28;20525;-76
2023/01/30 11:56:21;;;;;;;4.70;0.90;;;21.50;99.90;;;;;;5012507;28;20186;-75
2023/01/30 11:58:59;;;;;;;3.03;1.00;;;21.50;99.90;;;;;;5006134;28;20235;-75
2023/01/30 12:01:29;;;;;;;6.00;1.20;;;21.50;99.90;;;;;;5012510;28;20180;-75
2023/01/30 12:03:58;;;;;;;10.33;1.13;;;21.50;99.90;;;;;;5011651;28;20193;-76
2023/01/30 12:06:37;;;;;;;2.13;1.00;;;21.50;99.90;;;;;;5011801;28;20221;-75
2023/01/30 12:09:05;;;;;;;1.90;0.90;;;21.50;99.90;;;;;;5011353;28;20662;-76
2023/01/30 12:11:43;;;;;;;3.93;1.17;;;21.50;99.90;;;;;;5008620;28;20184;-75
2023/01/30 12:14:51;;;;;;;2.30;0.90;;;21.50;99.90;;;;;;5011326;28;20900;-75
2023/01/30 12:17:26;;;;;;;2.07;1.00;;;21.50;99.90;;;;;;4917600;29;20202;-75
2023/01/30 12:20:10;;;;;;;2.67;1.00;;;21.50;99.90;;;;;;4921152;29;20192;-76
2023/01/30 12:23:14;;;;;;;2.00;0.83;;;21.50;99.90;;;;;;4978188;28;20194;-75
2023/01/30 12:25:55;;;;;;;2.03;1.03;;;21.50;99.90;;;;;;4995533;28;20302;-75
2023/01/30 12:28:37;;;;;;;3.53;1.43;;;21.50;99.90;;;;;;5015898;28;20758;-77
2023/01/30 12:31:11;;;;;;;2.47;1.03;;;21.50;99.90;;;;;;5015493;28;20193;-75
2023/01/30 12:33:38;;;;;;;5.13;1.40;;;21.50;99.90;;;;;;5016480;28;20178;-75
2023/01/30 12:36:20;;;;;;;5.53;1.10;;;21.50;99.90;;;;;;4997885;28;20205;-76
2023/01/30 12:38:57;;;;;;;3.90;1.43;;;21.50;99.90;;;;;;4997206;28;20182;-75
2023/01/30 12:42:00;;;;;;;3.57;1.07;;;21.50;99.90;;;;;;5014670;28;20188;-74
2023/01/30 12:44:55;;;;;;;6.53;1.50;;;21.50;99.90;;;;;;5016167;28;20592;-75
2023/01/30 12:47:32;;;;;;;1.90;0.80;;;21.50;99.90;;;;;;4998232;28;20182;-76
2023/01/30 12:50:09;;;;;;;3.93;1.03;;;21.50;99.90;;;;;;5016622;28;20234;-75
2023/01/30 12:52:42;;;;;;;3.77;1.60;;;21.60;99.90;;;;;;4998537;28;20181;-75
2023/01/30 12:55:36;;;;;;;3.57;1.10;;;21.50;99.90;;;;;;5016747;28;20541;-75
2023/01/30 12:58:11;;;;;;;2.13;0.97;;;21.60;99.90;;;;;;5016308;28;20209;-77
2023/01/30 13:00:50;;;;;;;5.50;1.00;;;21.60;99.90;;;;;;5016686;28;20209;-76
2023/01/30 13:03:29;;;;;;;2.77;1.00;;;21.50;99.90;;;;;;5016231;28;20178;-77
2023/01/30 13:06:06;;;;;;;2.73;1.00;;;21.60;99.90;;;;;;5016208;28;20205;-76
2023/01/30 13:08:52;;;;;;;2.53;1.30;;;21.50;99.90;;;;;;5016229;28;20265;-76
2023/01/30 13:11:29;;;;;;;2.13;1.17;;;21.60;99.90;;;;;;5016095;28;20182;-77
2023/01/30 13:14:04;;;;;;;2.47;0.90;;;21.50;99.90;;;;;;4998481;28;20190;-76
2023/01/30 13:16:43;;;;;;;0.93;0.90;;;21.50;99.90;;;;;;5016076;28;20177;-76
2023/01/30 13:19:24;;;;;;;1.50;1.00;;;21.60;99.90;;;;;;5015915;28;20188;-75
2023/01/30 13:22:24;;;;;;;5.10;1.20;;;21.60;99.90;;;;;;5016006;28;20671;-75
2023/01/30 13:25:14;;;;;;;1.10;0.90;;;21.60;99.90;;;;;;5016018;28;20206;-76